Shannon, GA

9:06 AM EDT on July 28, 2014 (GMT -0400)
Russell (KRMG) Elev 643 ft | 34.35 °N, 85.16 °W | Change Station

Current weather conditions updated 13 minutes ago

Clear
Clear
81 °F
Feels Like 85 °F
N
5
Wind Variable Wind from North

Today is forecast to be Cooler than yesterday.

Today
High -- | Low -- °F
--% Chance of Precip.
Yesterday
High -- | Low -- °F
Precip. -- in
6:48 AM 8:45 PM
New Moon, 2% visible
Pressure 29.92 in
Visibility 10.0 miles
Clouds Clear
Heat Index 85 °F
Dew Point 71 °F
Humidity 72%
Rainfall 0.00 in
Snow Depth Not available.
UV 2 out of 12
Pollen 5.00 out of 12
Air Quality Not available.
Flu Activity Not available.
METAR KRMG 281253Z AUTO 36004KT 10SM CLR 27/22 A2995 RMK AO2 SLP132 T02720217

More Conditions Fewer Conditions

Pressure 29.92 in
Visibility 10.0 miles
Clouds Clear
Heat Index 85 °F
Dew Point 71 °F
Humidity 72%
Rainfall 0.00 in
Snow Depth Not available.
UV 2 out of 12
Pollen 5.00 out of 12
Air Quality Not available.
Flu Activity Not available.
METAR KRMG 281253Z AUTO 36004KT 10SM CLR 27/22 A2995 RMK AO2 SLP132 T02720217

More Conditions Fewer Conditions

10-Day Weather Forecast

Almanac

Astronomy

Jul. 28, 2014 Rise Set
Actual Time 6:48 AM EDT 8:45 PM EDT
Civil Twilight 6:20 AM EDT 9:13 PM EDT
Nautical Twilight 5:46 AM EDT 9:46 PM EDT
Astronomical Twilight 5:10 AM EDT 10:22 PM EDT
Moon 8:22 AM EDT 9:34 PM EDT
Length of Visible Light 14h 52m
Length of Day
13h 56m
Tomorrow will be 1m 30s shorter.
New Moon, 2% of the Moon is Illuminated
Today
New Moon
Aug 3
First Quarter
Aug 10
Full
Aug 17
Last Quarter
Aug 25
New

Today's Extremes

State Highs State Lows

Community

WunderPhotos

Upload Photos

1,738,317 photos uploaded!

Nearby

Snow Depth

Station Depth Elevation
No new snow has been reported.

Earthquake Activity

City Distance Mag. Time & Date
No recent earthquake activity has been reported nearby.
Minimum magnitude displayed is 2.5.

Coastal Water Temperatures

Place Temperature
No Stations Reporting

Nearby Weather Stations

Station Location Temp. Heat Index Dew Point Humidity Wind Precip. Elev Updated Type
Rome, Rome, GA 79.7 °F 82 °F 67 °F 65% NNW  at  4.0 mph - / hr 696 ft 9:05 AM EDT Normal
Fair Oaks/West Rome, Rome, GA 83.1 °F 89 °F 72 °F 70% SE  at  1.6 mph 0.00 in / hr 794 ft 9:06 AM EDT Rapid Fire
Highlands of Rome, Rome, GA 79.3 °F 83 °F 75 °F 87% SSW  at  0.0 mph 0.00 in / hr 665 ft 9:03 AM EDT Normal
Lindale, Lindale, GA 78.1 °F 81 °F 72 °F 82% NNE  at  0.0 mph 0.00 in / hr 780 ft 9:06 AM EDT Rapid Fire
Lindale, Lindale, GA 78.1 °F 81 °F 72 °F 82% WSW  at  1.0 mph 0.00 in / hr 907 ft 9:06 AM EDT Rapid Fire
Richardson Rd., Calhoun, GA 78.3 °F 81 °F 70 °F 77% WNW  at  0.0 mph 0.00 in / hr 689 ft 9:06 AM EDT Rapid Fire
The Villages of Calhoun, Calhoun, GA 79.0 °F 82 °F 72 °F 80% NW  at  1.0 mph 0.00 in / hr 676 ft 8:59 AM EDT Normal
The Massey's Farm, Resaca, GA 78.1 °F 81 °F 73 °F 84% NNE  at  3.2 mph - / hr 738 ft 9:03 AM EDT Normal

Show More Stations Show Fewer Stations